Relevés horaires Bierset (Belgique)


Relevés horaires à Bierset - Dimanche 12 Juill. 2020
Heure UTC1 Température [°C] Vent [km/h] Hum. [%] Pres.4 [hPa] Visi. [Km] Nébu. [octa] Préc.5 [mm] Cond.
2m. Res. Ros. Dir.2 Vit. Moy. Raf.3
23:00 13.3 13.3 7.7 NNE 3.7 3.7 5.6 69 1026.4(0.1/3h) 30 5/8 -- --
22:00 14.4 14.4 7.5 NNE 3.7 3.7 5.6 63 1026.4(0.1/3h) 30 5/8 -- --
21:00 15.0 15.0 7.6 NNE 3.7 9.3 11.1 61 1026.5(0.3/3h) 30 5/8 -- --
20:00 17.0 17.0 7.5 NNE 3.7 5.6 7.4 54 1026.2(-0.3/3h) 30 5/8 -- --
19:00 18.6 18.6 7.5 NNE 5.6 9.3 11.1 48 1026(-0.7/3h) 30 5/8 -- --
18:00 20.0 20.0 7.9 NNE 7.4 9.3 14.8 46 1025.9(-0.9/3h) 30 5/8 0/12h
--
17:00 19.7 19.7 7.2 NE 7.4 7.4 14.8 44 1026.4(-1.0/3h) 30 4/8 -- --
16:00 20.8 20.8 7.7 NNE 5.6 7.4 13.0 43 1026.6(-0.9/3h) 30 4/8 -- --
15:00 19.9 19.9 7.2 NNE 5.6 9.3 14.8 44 1026.8(-1.0/3h) 30 3/8 -- --
14:00 20.2 20.2 6.9 N 5.6 9.3 13.0 42 1027.3(-0.9/3h) 30 2/8 -- --
13:00 19.5 19.5 7.1 NNE 7.4 9.3 14.8 45 1027.6(-0.8/3h) 30 2/8 -- --
12:00 19.8 19.8 8.0 NNO 5.6 7.4 14.8 46 1027.9(-0.5/3h) 30 2/8 0/6h
--
11:00 17.8 17.8 7.9 N 5.6 7.4 11.1 52 1028.4(-0.3/3h) 30 2/8 -- --
10:00 17.3 17.3 8.5 NNE 5.6 7.4 13.0 56 1028.6(-0.2/3h) 30 2/8 -- --
09:00 16.5 16.5 10.0 ENE 5.6 7.4 11.1 65 1028.6(0.6/3h) 30 2/8 -- --
08:00 15.4 15.4 9.9 NE 7.4 7.4 11.1 70 1028.8(1.0/3h) 20 1/8 -- --
07:00 14.4 14.4 10.5 NNE 3.7 5.6 7.4 77 1028.6(1.1/3h) 20 2/8 -- --
06:00 12.5 12.5 10.8 NE 3.7 3.7 7.4 89 1028.3(0.8/3h) 12 1/8 0/12h
--
05:00 10.1 10.1 9.5 N 1.9 1.9 1.9 96 1028.1(0.7/3h) 12 1/8 -- --
04:00 9.5 9.5 8.9 NNO 1.9 1.9 1.9 96 1027.9(-0.2/3h) 20 1/8 -- --
03:00 10.2 10.2 9.2 NO 1.9 3.7 5.6 94 1027.6(-0.1/3h) 20 1/8 -- --
02:00 10.3 10.3 9.2 N 3.7 3.7 5.6 93 1027.4(-0.4/3h) 30 1/8 -- --
01:00 10.9 10.9 9.5 NNO 3.7 3.7 3.7 91 1027.6(0.1/3h) 30 1/8 -- --
00:00 12.4 12.4 10.1 NNO 1.9 9.3 13.0 86 1027.5(0.2/3h) 30 1/8 0/6h
0/24h
--

1 Coordinated Universal Time. Actuellement il est 19:00 locale et 17:00 UTC.

2 Le vent souffle depuis la direction indiquée vers la direction oposée.

3 Les rafales max. sont disponible 40 min après l'heure du relevé.

4 Pour les stations d'altitude (plus de 600m) le géopotentiel du niveau le plus proche de la pression obligatoire est indiqué.

5 Les stations disposant d'un diffuseur peuvent indiquer "trace". Cela signifie que des précipitations ont touchés le sol mais que la quantité est inférieure à 0.1 mm.

Récapitulatif de la journée
Température [°C] Vent [km/h] Ensoleillement4 [h] Precipitations totale5 [mm] Pression [Hpa]
Min1 Max.2 Moy.3 Max. Min Max.
9.3 21.2 6.4 14.8 0 h 0 min 0 1025.9 1028.8

1 Température minimale relevée entre 18:00 UTC la veille et 18:00 UTC le jour donné.

2 Température maximale relevée entre 06:00 UTC le jour donné et 06:00 UTC le lendemain.

3 Vent moyen de la journée basé sur les relevés horaires.

4 Ensoleillement en heures relevé entre 06:00 UTC la veille et 06:00 UTC le jour donné.

5 Précipitations totales tombées entre 06:00 UTC la jour donné et 06:00 UTC le lendemain.

Graphiques horaires